Time;durP1;ratioP1;P1;durP2;ratioP2;P2;SDS_P1;SDS_P2;PMS_P1;PMS_P2;Temp;Humidity;BMP_temperature;BMP_pressure;BME280_temperature;BME280_humidity;BME280_pressure;Samples;Min_cycle;Max_cycle;Signal;HPM_P1;HPM_P2
2021/07/01 03:18:52;;;;;;;19.90;14.00;;;;;;;24.42;71.92;94655.78;5476001;24;20083;-76
2021/07/01 03:21:18;;;;;;;17.08;12.95;;;;;;;24.49;71.57;94660.63;4729209;30;20071;-75
2021/07/01 03:23:44;;;;;;;16.23;12.35;;;;;;;24.45;71.47;94654.72;4712632;30;20053;-76
2021/07/01 03:26:10;;;;;;;18.30;13.57;;;;;;;24.12;71.49;94621.81;4722288;30;20127;-73
2021/07/01 03:28:36;;;;;;;23.17;15.35;;;;;;;24.45;71.93;94665.63;4726543;30;20050;-73
2021/07/01 03:31:03;;;;;;;19.25;14.68;;;;;;;24.48;71.59;94675.50;4726155;30;20041;-74
2021/07/01 03:33:29;;;;;;;17.55;14.18;;;;;;;24.45;71.99;94671.09;4726741;30;20047;-73
2021/07/01 03:35:54;;;;;;;16.25;13.50;;;;;;;24.34;71.71;94644.03;4714318;30;20049;-75
2021/07/01 03:38:20;;;;;;;19.73;13.55;;;;;;;24.58;71.19;94676.56;4710737;30;20800;-74
2021/07/01 03:40:46;;;;;;;16.98;13.02;;;;;;;24.67;70.77;94684.34;4710932;30;20187;-73
2021/07/01 03:43:12;;;;;;;19.20;12.73;;;;;;;24.76;70.24;94675.75;4710408;30;20068;-74
2021/07/01 03:45:37;;;;;;;16.58;13.25;;;;;;;24.69;69.92;94657.25;4711043;30;20049;-74
2021/07/01 03:48:03;;;;;;;18.90;13.20;;;;;;;24.91;69.79;94674.66;4710329;30;20029;-72
2021/07/01 03:50:29;;;;;;;19.58;13.93;;;;;;;24.94;69.69;94662.66;4710005;30;20036;-74
2021/07/01 03:52:54;;;;;;;18.25;13.68;;;;;;;25.08;69.35;94672.38;4695955;30;20072;-75
2021/07/01 03:55:20;;;;;;;16.17;12.40;;;;;;;25.22;69.16;94665.59;4693274;30;20046;-75
2021/07/01 03:57:46;;;;;;;18.85;13.30;;;;;;;25.33;68.83;94665.34;4717310;30;20120;-74
2021/07/01 04:00:12;;;;;;;16.83;13.43;;;;;;;25.43;68.44;94658.19;4765403;30;20032;-75
2021/07/01 04:02:38;;;;;;;15.15;13.07;;;;;;;25.53;68.37;94659.19;4765631;30;20585;-73
2021/07/01 04:05:05;;;;;;;18.58;13.85;;;;;;;25.67;67.90;94666.13;4748855;30;20042;-73
2021/07/01 04:07:30;;;;;;;19.02;13.07;;;;;;;25.43;67.86;94606.22;4765321;30;20032;-74
2021/07/01 04:09:56;;;;;;;18.23;12.90;;;;;;;25.92;67.25;94644.09;4764883;30;20127;-73
2021/07/01 04:12:21;;;;;;;16.58;12.95;;;;;;;26.08;66.59;94651.13;4760439;30;20035;-75
2021/07/01 04:14:47;;;;;;;18.52;12.52;;;;;;;26.11;66.73;94655.53;4763365;30;20600;-74
2021/07/01 04:17:13;;;;;;;17.00;12.80;;;;;;;26.18;66.81;94648.69;4764339;30;20036;-76
2021/07/01 04:19:38;;;;;;;14.27;11.48;;;;;;;26.25;66.59;94648.75;4762150;30;20087;-77
2021/07/01 04:22:04;;;;;;;16.48;13.30;;;;;;;26.33;66.47;94646.81;4763142;30;21786;-79
2021/07/01 04:24:29;;;;;;;16.77;12.30;;;;;;;26.42;65.56;94646.31;4761855;30;20488;-78
2021/07/01 04:26:55;;;;;;;12.80;11.13;;;;;;;26.49;65.41;94643.63;4763747;30;20474;-79
2021/07/01 04:29:21;;;;;;;16.40;11.43;;;;;;;26.62;64.54;94653.75;4763608;30;20027;-79
2021/07/01 04:31:47;;;;;;;15.75;11.15;;;;;;;26.64;64.24;94630.03;4765693;30;20031;-80
2021/07/01 04:34:13;;;;;;;16.70;12.75;;;;;;;26.77;63.85;94632.66;4755187;30;20081;-76
2021/07/01 04:36:38;;;;;;;15.68;11.18;;;;;;;26.89;64.16;94634.56;4751302;30;20052;-79
2021/07/01 04:39:04;;;;;;;13.68;11.60;;;;;;;27.02;63.59;94631.69;4737995;30;20035;-77
2021/07/01 04:41:29;;;;;;;15.40;12.10;;;;;;;26.84;63.18;94599.78;4751185;30;20520;-79
2021/07/01 04:44:08;;;;;;;16.65;10.90;;;;;;;26.87;62.66;94598.69;4744401;30;20035;-76
2021/07/01 04:46:34;;;;;;;12.40;11.03;;;;;;;27.27;62.67;94632.69;4745761;30;20032;-73
2021/07/01 04:49:00;;;;;;;15.20;10.98;;;;;;;27.39;61.92;94639.31;4750048;30;21087;-74
2021/07/01 04:51:26;;;;;;;13.80;10.75;;;;;;;27.52;61.70;94644.66;4738994;30;20405;-74
2021/07/01 04:53:52;;;;;;;16.95;11.25;;;;;;;27.56;62.04;94634.81;4761613;30;20130;-74
2021/07/01 04:56:17;;;;;;;15.15;12.23;;;;;;;27.54;62.43;94625.66;4754802;30;20036;-79
2021/07/01 04:58:43;;;;;;;15.95;11.48;;;;;;;27.66;61.78;94643.25;4754638;30;20059;-78
2021/07/01 05:01:10;;;;;;;15.65;11.70;;;;;;;27.66;61.83;94648.75;4755915;30;20184;-79
2021/07/01 05:03:36;;;;;;;17.50;11.75;;;;;;;27.68;61.93;94651.66;4749656;30;20047;-79
2021/07/01 05:06:02;;;;;;;15.63;11.32;;;;;;;27.66;62.52;94659.72;4751631;30;20060;-78
2021/07/01 05:08:28;;;;;;;15.75;12.25;;;;;;;27.69;62.50;94659.34;4746742;30;20024;-84
2021/07/01 05:10:53;;;;;;;16.17;11.50;;;;;;;27.72;62.07;94657.53;4751467;30;20036;-78
2021/07/01 05:13:19;;;;;;;17.02;12.32;;;;;;;27.77;61.97;94649.84;4751932;30;20058;-80
2021/07/01 05:15:45;;;;;;;15.32;11.77;;;;;;;27.86;62.08;94649.31;4755677;30;20176;-80
2021/07/01 05:18:10;;;;;;;16.63;12.57;;;;;;;27.85;61.95;94647.84;4758970;30;20027;-83
2021/07/01 05:20:36;;;;;;;19.90;12.25;;;;;;;27.97;61.29;94651.69;4748388;30;20056;-78
2021/07/01 05:23:02;;;;;;;18.60;12.77;;;;;;;27.93;61.79;94637.59;4743758;30;20052;-77
2021/07/01 05:25:27;;;;;;;19.65;13.07;;;;;;;28.07;61.29;94644.41;4763410;30;20426;-79
2021/07/01 05:27:53;;;;;;;16.98;12.60;;;;;;;27.80;61.14;94588.38;4755788;30;20127;-87
2021/07/01 05:30:18;;;;;;;17.02;12.80;;;;;;;28.17;60.48;94634.34;4762189;30;20418;-82
2021/07/01 05:32:44;;;;;;;21.73;12.75;;;;;;;28.28;60.23;94636.69;4749818;30;20040;-81
2021/07/01 05:35:09;;;;;;;22.65;13.23;;;;;;;28.32;60.14;94632.31;4766346;30;20130;-84
2021/07/01 05:37:35;;;;;;;26.88;14.48;;;;;;;28.03;60.52;94591.84;4765149;30;20063;-75
2021/07/01 05:40:01;;;;;;;21.08;12.88;;;;;;;28.28;60.94;94636.69;4764548;30;20036;-76
2021/07/01 05:42:27;;;;;;;19.55;13.40;;;;;;;28.32;61.74;94642.56;4750062;30;20040;-74
2021/07/01 05:44:52;;;;;;;23.50;13.57;;;;;;;28.31;60.96;94635.59;4767586;30;20035;-73
2021/07/01 05:47:17;;;;;;;20.77;14.32;;;;;;;28.30;60.41;94636.91;4767456;30;20051;-76
2021/07/01 05:49:43;;;;;;;18.33;11.32;;;;;;;27.89;59.12;94574.13;4767662;30;20031;-74
2021/07/01 05:52:09;;;;;;;17.30;12.50;;;;;;;28.29;58.61;94616.19;4768079;30;20036;-75
2021/07/01 05:54:36;;;;;;;20.13;11.88;;;;;;;28.31;59.29;94624.63;4768215;30;20055;-77
2021/07/01 05:57:03;;;;;;;18.15;12.63;;;;;;;28.33;57.87;94625.53;4767567;30;20044;-78
2021/07/01 05:59:28;;;;;;;17.90;11.05;;;;;;;28.45;54.12;94623.16;4766359;30;20031;-76
2021/07/01 06:01:54;;;;;;;15.77;10.20;;;;;;;28.39;51.73;94628.09;4711188;30;20048;-76
2021/07/01 06:04:20;;;;;;;14.45;10.15;;;;;;;28.25;50.05;94621.31;4763997;30;20027;-75
2021/07/01 06:06:50;;;;;;;13.25;9.73;;;;;;;28.02;48.81;94630.84;4785783;30;20035;-76
2021/07/01 06:09:16;;;;;;;11.52;9.07;;;;;;;27.77;47.80;94633.38;4775777;30;20024;-77
2021/07/01 06:11:41;;;;;;;12.18;9.60;;;;;;;26.90;47.18;94542.84;4779053;30;20572;-77
2021/07/01 06:14:07;;;;;;;11.20;8.77;;;;;;;26.71;47.33;94540.91;4766852;30;20054;-84
2021/07/01 06:16:36;;;;;;;12.88;9.80;;;;;;;26.61;46.48;94581.06;4748525;30;20015;-84
2021/07/01 06:19:03;;;;;;;12.88;9.38;;;;;;;26.41;47.26;94592.81;4762566;30;20485;-83
2021/07/01 06:21:29;;;;;;;11.02;8.60;;;;;;;26.23;47.16;94601.97;4734585;30;20039;-82
2021/07/01 06:23:55;;;;;;;10.07;8.38;;;;;;;26.27;47.48;94605.13;4738935;30;20042;-83
2021/07/01 06:26:26;;;;;;;11.48;8.52;;;;;;;26.38;48.52;94604.84;4753896;30;20038;-83
2021/07/01 06:28:51;;;;;;;11.75;8.50;;;;;;;26.39;48.86;94620.00;4750208;30;20476;-82
2021/07/01 06:31:17;;;;;;;13.90;9.15;;;;;;;26.67;50.39;94650.13;4752775;30;20032;-82
2021/07/01 06:33:44;;;;;;;11.88;8.70;;;;;;;26.27;51.60;94586.72;4766916;30;20490;-83
2021/07/01 06:36:10;;;;;;;10.90;8.70;;;;;;;26.24;52.62;94581.56;4755748;30;20058;-83
2021/07/01 06:38:50;;;;;;;10.95;8.55;;;;;;;26.21;53.13;94577.16;4740069;30;20035;-82
2021/07/01 06:41:17;;;;;;;11.20;8.65;;;;;;;26.61;53.13;94644.06;4753077;30;20062;-82
2021/07/01 06:43:44;;;;;;;11.95;8.75;;;;;;;26.52;54.06;94619.91;4753166;30;20036;-84
2021/07/01 06:46:10;;;;;;;10.43;8.48;;;;;;;26.27;55.86;94586.72;4752196;30;20051;-81
2021/07/01 06:48:35;;;;;;;11.40;8.82;;;;;;;26.16;56.68;94564.38;4738155;30;20032;-84
2021/07/01 06:51:01;;;;;;;10.80;8.35;;;;;;;26.59;57.11;94635.66;4751161;30;20023;-81
2021/07/01 06:53:27;;;;;;;9.77;8.40;;;;;;;26.56;56.89;94628.50;4743234;30;20089;-83
2021/07/01 06:55:53;;;;;;;11.10;8.40;;;;;;;26.22;56.95;94573.16;4757040;30;20539;-84
2021/07/01 06:58:19;;;;;;;10.02;8.90;;;;;;;26.19;56.99;94570.75;4727077;30;20034;-83
2021/07/01 07:00:44;;;;;;;10.70;7.97;;;;;;;26.12;56.23;94569.44;4752840;30;20573;-83
2021/07/01 07:03:17;;;;;;;11.60;8.60;;;;;;;26.59;56.13;94605.50;4747112;30;20043;-77
2021/07/01 07:05:50;;;;;;;11.82;8.30;;;;;;;26.56;57.01;94603.84;4759415;30;20118;-75
2021/07/01 07:08:16;;;;;;;11.02;8.45;;;;;;;26.57;56.83;94606.06;4750350;30;20491;-77
2021/07/01 07:10:43;;;;;;;11.00;8.05;;;;;;;26.58;56.55;94604.06;4760704;30;20040;-78
2021/07/01 07:13:09;;;;;;;9.90;8.68;;;;;;;26.58;56.55;94606.81;4751286;30;20032;-78
2021/07/01 07:15:34;;;;;;;10.77;8.02;;;;;;;26.50;55.86;94592.31;4753156;30;20044;-77
2021/07/01 07:18:01;;;;;;;9.32;8.07;;;;;;;26.59;55.98;94605.50;4748882;30;20657;-75
2021/07/01 07:20:27;;;;;;;10.68;8.32;;;;;;;26.58;55.93;94604.06;4758948;30;20105;-77
2021/07/01 07:22:53;;;;;;;9.63;8.00;;;;;;;26.62;56.19;94609.91;4766870;30;20058;-78
2021/07/01 07:25:19;;;;;;;10.05;7.18;;;;;;;26.32;55.63;94585.09;4766481;30;20075;-77
2021/07/01 07:27:55;;;;;;;10.73;7.65;;;;;;;26.63;55.84;94611.38;4752022;30;20046;-77
2021/07/01 07:30:24;;;;;;;9.77;7.70;;;;;;;26.20;55.02;94537.34;4784049;30;20035;-77
2021/07/01 07:32:50;;;;;;;9.35;7.95;;;;;;;26.59;54.89;94600.03;4764573;30;20051;-77
2021/07/01 07:35:15;;;;;;;11.55;8.18;;;;;;;26.52;54.57;94589.78;4764650;30;20027;-76
2021/07/01 07:37:40;;;;;;;10.48;7.68;;;;;;;26.58;54.10;94604.06;4768234;30;20042;-77
2021/07/01 07:40:06;;;;;;;9.40;7.53;;;;;;;26.56;53.88;94595.63;4770174;30;20035;-76
2021/07/01 07:42:32;;;;;;;9.38;7.13;;;;;;;26.54;53.43;94589.97;4767791;30;20062;-76
2021/07/01 07:44:58;;;;;;;10.30;8.02;;;;;;;26.54;53.47;94592.72;4767290;30;20039;-78
2021/07/01 07:47:23;;;;;;;9.18;7.40;;;;;;;26.53;53.27;94596.72;4766379;30;20055;-76
2021/07/01 07:49:49;;;;;;;8.63;7.15;;;;;;;26.52;53.80;94589.78;4765876;30;20454;-75
2021/07/01 07:52:14;;;;;;;8.65;7.53;;;;;;;26.52;54.69;94589.78;4765974;30;20035;-77
2021/07/01 07:54:52;;;;;;;9.23;7.18;;;;;;;26.47;55.52;94587.91;4766169;30;20595;-78
2021/07/01 07:57:18;;;;;;;10.65;7.15;;;;;;;26.39;54.64;94581.69;4764151;30;20733;-76
2021/07/01 07:59:44;;;;;;;9.27;7.30;;;;;;;25.98;54.35;94537.25;4756140;30;20031;-77
2021/07/01 08:02:21;;;;;;;10.55;7.20;;;;;;;26.33;53.80;94594.78;4769464;30;20035;-77
2021/07/01 08:04:46;;;;;;;9.65;7.40;;;;;;;26.09;53.97;94565.03;4767061;30;20039;-76
2021/07/01 08:07:12;;;;;;;9.07;7.30;;;;;;;26.14;53.81;94582.59;4767646;30;20476;-76
2021/07/01 08:09:37;;;;;;;10.55;7.35;;;;;;;26.12;54.04;94591.34;4751923;30;20103;-76
2021/07/01 08:12:03;;;;;;;9.80;7.40;;;;;;;26.07;54.05;94589.47;4749086;30;20496;-78
2021/07/01 08:14:28;;;;;;;8.27;6.80;;;;;;;25.80;54.55;94541.69;4749780;30;20054;-79
2021/07/01 08:16:54;;;;;;;9.25;7.55;;;;;;;26.07;56.10;94586.75;4766070;30;20024;-77
2021/07/01 08:19:19;;;;;;;9.13;7.32;;;;;;;25.74;57.13;94525.94;4765573;30;20067;-77
2021/07/01 08:21:46;;;;;;;9.90;7.05;;;;;;;26.13;57.96;94578.38;4765678;30;20038;-77
2021/07/01 08:24:11;;;;;;;8.88;7.15;;;;;;;26.09;58.26;94575.97;4787949;30;20038;-76
2021/07/01 08:26:36;;;;;;;8.70;7.20;;;;;;;26.15;58.35;94579.31;4779952;30;20396;-77
2021/07/01 08:29:02;;;;;;;8.50;7.03;;;;;;;26.15;58.49;94576.56;4764746;30;20522;-77
2021/07/01 08:31:29;;;;;;;9.73;7.13;;;;;;;26.17;58.46;94571.28;4747912;30;20514;-77
2021/07/01 08:33:55;;;;;;;10.90;7.53;;;;;;;26.16;58.86;94575.31;4764429;30;20031;-77
2021/07/01 08:36:21;;;;;;;8.18;6.75;;;;;;;26.17;58.83;94576.75;4749728;30;20545;-79
2021/07/01 08:38:54;;;;;;;8.98;6.90;;;;;;;26.19;58.66;94568.75;4765037;30;20039;-76
2021/07/01 08:41:25;;;;;;;7.93;6.82;;;;;;;26.17;58.88;94565.81;4763750;30;20035;-78
2021/07/01 08:43:54;;;;;;;8.63;7.35;;;;;;;26.19;58.82;94563.28;4749074;30;20038;-77
2021/07/01 08:46:27;;;;;;;8.88;6.68;;;;;;;26.20;58.71;94556.53;4765453;30;20044;-76
2021/07/01 08:48:55;;;;;;;9.27;6.88;;;;;;;26.19;58.69;94546.88;4765404;30;20024;-77
2021/07/01 08:51:26;;;;;;;9.50;7.13;;;;;;;26.18;58.82;94545.38;4765014;30;20043;-76
2021/07/01 08:54:25;;;;;;;8.88;6.72;;;;;;;26.22;58.33;94551.25;4748942;30;20047;-76
2021/07/01 08:56:53;;;;;;;8.20;6.85;;;;;;;25.85;58.22;94497.03;4765209;30;20051;-76
2021/07/01 08:59:19;;;;;;;9.75;7.07;;;;;;;26.23;58.06;94541.03;4754323;30;20490;-75
2021/07/01 09:01:51;;;;;;;7.75;6.20;;;;;;;26.23;57.90;94541.75;4782863;30;20059;-77
2021/07/01 09:04:17;;;;;;;9.73;7.07;;;;;;;26.25;57.81;94549.44;4766484;30;20039;-76
2021/07/01 09:06:42;;;;;;;10.63;7.00;;;;;;;26.21;57.59;94538.84;4752098;30;20521;-76
2021/07/01 09:09:09;;;;;;;7.45;6.13;;;;;;;26.22;57.38;94534.84;4782723;30;20241;-76
2021/07/01 09:11:37;;;;;;;9.68;6.65;;;;;;;26.17;57.54;94527.50;4766794;30;20559;-76
2021/07/01 09:14:07;;;;;;;7.80;6.00;;;;;;;26.24;56.75;94535.03;4766763;30;20503;-77
2021/07/01 09:16:33;;;;;;;8.50;6.82;;;;;;;26.24;56.56;94537.75;4767235;30;20533;-77
2021/07/01 09:18:59;;;;;;;8.95;6.38;;;;;;;26.22;56.41;94532.09;4779180;30;20031;-77
2021/07/01 09:21:25;;;;;;;8.63;6.10;;;;;;;25.84;56.37;94484.63;4763388;30;20059;-74
2021/07/01 09:23:50;;;;;;;8.68;6.00;;;;;;;26.21;56.15;94547.06;4764531;30;20030;-77
2021/07/01 09:26:21;;;;;;;8.98;6.18;;;;;;;26.11;56.11;94524.16;4734459;30;20028;-77
2021/07/01 09:28:50;;;;;;;11.15;6.20;;;;;;;26.13;55.92;94532.59;4765151;30;20122;-76
2021/07/01 09:31:16;;;;;;;8.45;6.00;;;;;;;26.17;55.74;94527.50;4748964;30;20040;-76
2021/07/01 09:33:42;;;;;;;8.35;6.38;;;;;;;26.16;56.09;94528.78;4764600;30;20055;-76
2021/07/01 09:36:08;;;;;;;8.02;6.20;;;;;;;26.15;55.93;94518.38;4749212;30;20045;-74
2021/07/01 09:38:34;;;;;;;7.30;5.68;;;;;;;26.12;55.82;94514.69;4748530;30;20040;-77
2021/07/01 09:40:59;;;;;;;7.55;5.82;;;;;;;26.14;55.86;94516.91;4766455;30;20035;-77
2021/07/01 09:43:24;;;;;;;8.68;5.80;;;;;;;26.15;55.40;94518.38;4781975;30;20032;-75
2021/07/01 09:45:51;;;;;;;8.98;6.57;;;;;;;26.07;55.50;94512.09;4766366;30;20096;-77
2021/07/01 09:48:17;;;;;;;9.30;6.20;;;;;;;26.11;55.33;94507.75;4766534;30;20027;-77
2021/07/01 09:50:50;;;;;;;6.07;5.13;;;;;;;26.12;55.11;94503.03;4751808;30;20023;-76
2021/07/01 09:53:35;;;;;;;9.63;6.25;;;;;;;26.12;55.17;94503.75;4781980;30;20059;-77
2021/07/01 09:56:05;;;;;;;7.65;5.88;;;;;;;26.11;54.76;94502.28;4765863;30;20396;-76
2021/07/01 09:58:31;;;;;;;7.82;5.22;;;;;;;25.74;54.95;94441.13;4782395;30;20092;-75
2021/07/01 10:00:57;;;;;;;6.97;4.93;;;;;;;26.10;54.98;94500.81;4766295;30;20066;-76
2021/07/01 10:03:22;;;;;;;7.85;5.80;;;;;;;25.71;55.06;94442.22;4765791;30;20046;-75
2021/07/01 10:05:48;;;;;;;6.82;5.57;;;;;;;26.09;54.77;94488.41;4782599;30;20038;-75
2021/07/01 10:08:13;;;;;;;6.68;5.18;;;;;;;26.03;54.92;94474.16;4751725;30;20031;-77
2021/07/01 10:10:49;;;;;;;6.28;5.32;;;;;;;26.10;54.75;94473.47;4751138;30;20042;-77
2021/07/01 10:13:15;;;;;;;8.00;5.40;;;;;;;26.09;54.49;94477.47;4751403;30;20023;-75
2021/07/01 10:15:41;;;;;;;6.63;5.38;;;;;;;26.10;54.63;94473.47;4782776;30;20115;-77
2021/07/01 10:18:27;;;;;;;7.15;5.47;;;;;;;25.90;54.62;94444.19;4783044;30;20082;-76
2021/07/01 10:20:54;;;;;;;7.10;4.97;;;;;;;26.04;54.02;94458.47;4766628;29;20146;-78
2021/07/01 10:23:22;;;;;;;8.38;5.35;;;;;;;26.12;54.53;94470.91;4785553;30;20491;-77
2021/07/01 10:25:50;;;;;;;7.18;5.10;;;;;;;26.12;54.14;94465.44;4785948;30;20482;-75
2021/07/01 10:28:17;;;;;;;6.10;5.03;;;;;;;26.11;54.37;94458.47;4785638;30;20023;-77
2021/07/01 10:30:43;;;;;;;8.85;5.10;;;;;;;26.12;54.09;94451.75;4769333;30;20038;-77
2021/07/01 10:33:42;;;;;;;7.47;5.28;;;;;;;26.14;54.12;94456.69;4754600;30;20447;-76
2021/07/01 10:36:15;;;;;;;6.38;5.30;;;;;;;26.15;53.90;94452.69;4749619;30;20142;-77
2021/07/01 10:38:47;;;;;;;6.07;5.00;;;;;;;26.15;54.06;94458.88;4769201;30;20856;-77
2021/07/01 10:41:45;;;;;;;6.43;5.05;;;;;;;25.84;53.94;94399.81;4785803;30;20593;-75
2021/07/01 10:44:22;;;;;;;6.80;4.88;;;;;;;26.16;53.92;94435.72;4770944;30;20051;-77
2021/07/01 10:46:48;;;;;;;6.55;4.90;;;;;;;26.17;53.76;94428.94;4775840;30;20077;-77
2021/07/01 10:49:14;;;;;;;6.68;4.93;;;;;;;26.17;53.58;94426.22;4751401;30;20039;-77
2021/07/01 10:51:55;;;;;;;6.20;4.63;;;;;;;26.18;53.70;94424.22;4737011;30;20044;-75
2021/07/01 10:54:21;;;;;;;7.82;5.05;;;;;;;26.18;53.80;94424.94;4766569;30;20044;-75
2021/07/01 10:56:46;;;;;;;5.43;4.50;;;;;;;26.16;53.64;94411.09;4750585;30;20523;-76
2021/07/01 10:59:12;;;;;;;7.88;5.70;;;;;;;26.18;53.54;94419.47;4751249;30;20031;-78
2021/07/01 11:01:41;;;;;;;5.10;4.20;;;;;;;25.75;53.61;94355.09;4767381;30;20066;-76
2021/07/01 11:04:16;;;;;;;6.73;5.10;;;;;;;26.20;53.93;94408.72;4766483;30;20045;-77
2021/07/01 11:07:01;;;;;;;6.18;4.68;;;;;;;26.21;54.46;94404.72;4767036;30;20518;-80
2021/07/01 11:09:28;;;;;;;6.90;5.25;;;;;;;26.23;54.29;94393.94;4769652;30;20031;-75
2021/07/01 11:12:00;;;;;;;5.65;4.35;;;;;;;25.95;54.26;94346.78;4751389;30;20039;-77
2021/07/01 11:14:26;;;;;;;6.60;4.65;;;;;;;26.23;54.46;94388.47;4765355;30;20123;-77
2021/07/01 11:16:51;;;;;;;6.60;4.55;;;;;;;26.24;54.42;94389.94;4750753;30;20036;-76
2021/07/01 11:19:18;;;;;;;6.05;4.45;;;;;;;26.26;54.58;94387.38;4766758;30;20082;-76
2021/07/01 11:21:46;;;;;;;5.50;4.53;;;;;;;26.24;54.34;94378.97;4771228;30;20034;-76
2021/07/01 11:24:22;;;;;;;5.88;4.22;;;;;;;26.27;54.46;94383.38;4766245;30;20032;-76
2021/07/01 11:26:49;;;;;;;5.03;4.10;;;;;;;26.29;54.51;94376.13;4766575;30;20503;-77
2021/07/01 11:29:15;;;;;;;7.50;4.68;;;;;;;26.28;54.03;94373.94;4750603;30;20027;-76
2021/07/01 11:31:43;;;;;;;6.80;4.38;;;;;;;26.30;54.13;94365.88;4766981;30;20054;-79
2021/07/01 11:34:09;;;;;;;7.05;4.72;;;;;;;26.29;53.95;94361.69;4765953;30;20426;-76
2021/07/01 11:36:35;;;;;;;6.05;4.10;;;;;;;26.30;54.09;94354.94;4766587;30;20137;-77
2021/07/01 11:39:05;;;;;;;6.28;4.68;;;;;;;26.24;53.73;94346.13;4774859;30;20547;-76
2021/07/01 11:41:31;;;;;;;5.80;4.40;;;;;;;26.31;53.72;94345.47;4768375;30;20035;-78
2021/07/01 11:43:56;;;;;;;6.45;4.18;;;;;;;26.04;53.88;94305.94;4767814;30;20443;-76
2021/07/01 11:46:22;;;;;;;5.97;4.20;;;;;;;26.33;53.66;94342.91;4767200;30;20057;-75
2021/07/01 11:48:49;;;;;;;5.80;4.60;;;;;;;26.34;53.77;94327.94;4783542;30;20027;-75
2021/07/01 11:51:15;;;;;;;6.45;4.50;;;;;;;26.34;53.97;94317.72;4784685;30;20035;-76
2021/07/01 11:53:40;;;;;;;7.10;4.45;;;;;;;26.30;53.58;94311.13;4768762;30;20486;-77
2021/07/01 11:56:06;;;;;;;6.20;4.55;;;;;;;26.34;53.50;94311.53;4769756;30;20506;-77
2021/07/01 11:58:31;;;;;;;7.28;4.53;;;;;;;26.35;53.42;94307.50;4785137;30;20035;-76
2021/07/01 12:00:57;;;;;;;6.45;4.22;;;;;;;26.31;53.55;94291.44;4784933;30;20032;-75
2021/07/01 12:03:22;;;;;;;7.47;4.40;;;;;;;26.37;53.81;94294.00;4784187;30;20049;-75
2021/07/01 12:05:52;;;;;;;6.18;4.20;;;;;;;26.36;53.58;94287.06;4768674;30;20038;-75
2021/07/01 12:08:17;;;;;;;;;;;;;;;26.38;53.61;94289.97;4768709;30;20032;-77
2021/07/01 12:10:46;;;;;;;8.13;4.63;;;;;;;26.28;53.59;94286.31;4781851;30;19917;-76
2021/07/01 12:13:33;;;;;;;7.30;4.40;;;;;;;26.37;53.11;94291.25;4784887;30;20057;-79
2021/07/01 12:16:05;;;;;;;7.30;4.30;;;;;;;26.38;53.49;94295.44;4784608;30;20038;-78
2021/07/01 12:18:50;;;;;;;6.30;3.90;;;;;;;26.40;53.90;94298.38;4785255;30;20023;-79
2021/07/01 12:21:20;;;;;;;7.78;4.22;;;;;;;26.40;53.82;94290.91;4784387;30;20051;-77
2021/07/01 12:23:51;;;;;;;6.15;3.97;;;;;;;26.41;53.84;94288.88;4784949;30;20036;-78
2021/07/01 12:26:35;;;;;;;6.65;4.32;;;;;;;26.36;53.71;94285.03;4784816;30;20180;-78
2021/07/01 12:29:01;;;;;;;6.00;4.55;;;;;;;26.45;53.75;94283.78;4785265;30;20042;-78
2021/07/01 12:31:27;;;;;;;7.30;4.07;;;;;;;26.08;53.92;94213.25;4784529;30;20207;-80
2021/07/01 12:33:59;;;;;;;5.00;3.90;;;;;;;26.47;53.87;94265.53;4767218;30;20052;-76
2021/07/01 12:36:35;;;;;;;7.10;4.32;;;;;;;26.47;53.79;94265.53;4783134;30;20096;-76
2021/07/01 12:39:13;;;;;;;7.10;4.40;;;;;;;26.49;53.89;94262.25;4767540;30;20069;-79
2021/07/01 12:41:45;;;;;;;6.90;4.00;;;;;;;26.50;53.99;94250.00;4784681;30;20031;-77
2021/07/01 12:44:22;;;;;;;7.20;4.53;;;;;;;26.23;54.08;94196.13;4781121;30;20039;-78
2021/07/01 12:46:48;;;;;;;5.55;3.90;;;;;;;26.54;53.77;94239.41;4768236;30;20031;-76
2021/07/01 12:49:16;;;;;;;4.72;3.72;;;;;;;26.55;53.77;94244.34;4783026;30;20038;-77
2021/07/01 12:51:45;;;;;;;6.57;4.25;;;;;;;26.54;53.69;94244.91;4783003;30;20035;-78
2021/07/01 12:54:22;;;;;;;4.90;3.35;;;;;;;26.55;53.56;94244.34;4782935;30;20503;-76
2021/07/01 12:56:49;;;;;;;5.30;3.42;;;;;;;26.59;53.46;94233.00;4782686;30;20102;-77
2021/07/01 12:59:15;;;;;;;5.72;3.92;;;;;;;26.62;53.15;94231.91;4782995;30;20145;-74
2021/07/01 13:01:40;;;;;;;6.18;3.80;;;;;;;26.28;52.67;94182.31;4782971;30;20118;-75
2021/07/01 13:04:06;;;;;;;7.25;4.53;;;;;;;26.63;52.78;94233.38;4751670;30;20426;-76
2021/07/01 13:06:31;;;;;;;4.55;3.78;;;;;;;26.57;53.15;94236.31;4782473;30;20039;-76
2021/07/01 13:08:57;;;;;;;5.93;3.72;;;;;;;26.62;52.63;94253.81;4782653;30;20492;-76
2021/07/01 13:11:22;;;;;;;7.93;3.58;;;;;;;26.21;52.50;94188.47;4782314;30;20423;-75
2021/07/01 13:13:57;;;;;;;6.38;4.28;;;;;;;26.64;52.79;94254.03;4782197;30;20054;-77
2021/07/01 13:16:23;;;;;;;6.22;3.80;;;;;;;26.65;52.78;94236.31;4782269;30;20058;-74
2021/07/01 13:18:48;;;;;;;5.50;3.80;;;;;;;26.67;52.60;94220.06;4766244;30;20027;-74
2021/07/01 13:21:13;;;;;;;4.80;3.45;;;;;;;26.63;52.38;94206.00;4782389;30;20059;-75
2021/07/01 13:23:39;;;;;;;4.70;3.38;;;;;;;26.67;52.06;94206.38;4782329;30;20036;-76
2021/07/01 13:26:11;;;;;;;5.10;3.60;;;;;;;26.64;52.50;94212.94;4779625;30;20031;-77
2021/07/01 13:28:36;;;;;;;4.95;3.45;;;;;;;26.62;52.42;94204.53;4765449;30;20034;-75
2021/07/01 13:31:02;;;;;;;4.93;3.60;;;;;;;26.62;51.84;94193.56;4764549;30;20419;-76
2021/07/01 13:33:28;;;;;;;5.72;3.78;;;;;;;26.61;51.70;94200.34;4764236;30;20035;-75
2021/07/01 13:35:53;;;;;;;5.18;3.60;;;;;;;26.62;51.88;94210.00;4764519;30;20414;-77
2021/07/01 13:38:20;;;;;;;6.85;3.88;;;;;;;26.57;52.00;94213.66;4748575;30;20051;-75
2021/07/01 13:40:46;;;;;;;5.55;3.25;;;;;;;26.57;51.66;94221.88;4764548;30;20028;-76
2021/07/01 13:43:13;;;;;;;4.78;3.63;;;;;;;26.50;51.83;94230.81;4764438;30;20173;-76
2021/07/01 13:45:41;;;;;;;6.13;3.53;;;;;;;26.49;51.66;94245.81;4748517;30;20341;-76
2021/07/01 13:48:07;;;;;;;4.60;3.70;;;;;;;26.46;51.87;94269.53;4748547;30;20035;-77
2021/07/01 13:50:48;;;;;;;5.28;3.72;;;;;;;26.46;51.96;94285.25;4764575;30;20042;-77
2021/07/01 13:53:19;;;;;;;5.10;3.58;;;;;;;26.35;51.92;94274.63;4764398;30;20039;-78
2021/07/01 13:55:46;;;;;;;4.68;3.15;;;;;;;26.38;51.93;94284.50;4748353;30;20043;-77
2021/07/01 13:58:12;;;;;;;6.03;3.85;;;;;;;26.28;51.99;94292.53;4767318;30;20039;-77
2021/07/01 14:00:40;;;;;;;5.03;3.58;;;;;;;26.31;51.98;94324.28;4767962;30;20039;-77
2021/07/01 14:03:12;;;;;;;6.55;3.83;;;;;;;26.27;52.01;94339.56;4767302;30;20032;-77
2021/07/01 14:05:44;;;;;;;6.35;3.92;;;;;;;26.25;52.17;94358.56;4767663;30;20067;-76
2021/07/01 14:08:30;;;;;;;10.63;3.75;;;;;;;26.23;52.29;94355.63;4767807;30;20062;-79
2021/07/01 14:11:06;;;;;;;6.70;3.20;;;;;;;26.22;52.21;94359.66;4767862;30;20036;-80
2021/07/01 14:14:01;;;;;;;7.03;3.67;;;;;;;26.19;52.28;94344.31;4767730;30;20075;-79
2021/07/01 14:16:37;;;;;;;5.82;3.97;;;;;;;26.16;52.23;94350.88;4761402;30;20051;-79
2021/07/01 14:19:03;;;;;;;8.57;3.38;;;;;;;26.12;52.23;94355.97;4770002;30;20035;-79
2021/07/01 14:21:38;;;;;;;5.75;3.10;;;;;;;26.10;52.15;94358.50;4749111;30;20579;-78
2021/07/01 14:24:08;;;;;;;6.15;3.88;;;;;;;26.06;50.96;94358.13;4733881;30;20115;-78
2021/07/01 14:26:35;;;;;;;;;;;;;;;26.07;50.75;94359.59;4734847;30;20102;-80
2021/07/01 14:29:00;;;;;;;5.70;3.03;;;;;;;26.08;50.82;94388.41;4749216;30;19914;-76
2021/07/01 14:31:26;;;;;;;5.57;3.55;;;;;;;26.09;50.91;94406.31;4750425;30;20043;-76
2021/07/01 14:33:51;;;;;;;8.00;3.65;;;;;;;26.09;51.15;94398.09;4734062;30;20043;-79
2021/07/01 14:36:24;;;;;;;8.85;3.55;;;;;;;26.11;50.98;94379.13;4750274;30;20036;-80
2021/07/01 14:39:06;;;;;;;5.80;3.40;;;;;;;26.14;50.79;94363.63;4750019;30;20086;-77
2021/07/01 14:41:35;;;;;;;5.57;3.10;;;;;;;26.16;50.82;94345.41;4750076;30;20043;-78
2021/07/01 14:44:03;;;;;;;7.93;3.33;;;;;;;26.19;51.10;94344.31;4733574;30;20457;-79
2021/07/01 14:46:45;;;;;;;6.43;3.20;;;;;;;25.90;50.76;94280.03;4750285;30;20135;-78
2021/07/01 14:49:29;;;;;;;8.90;3.33;;;;;;;26.23;51.02;94317.28;4734394;30;20484;-77
2021/07/01 14:51:59;;;;;;;6.38;3.25;;;;;;;26.22;51.70;94315.84;4733570;30;20552;-78